ADDS METAR Data INFO
IDs: Format: Raw Decoded Include TAF

Data at: 0741 UTC 24 Oct 2017

EGPH 240720Z 27004KT 230V320 9999 -RA FEW018 12/09 Q1005
EGPH 240650Z 23004KT 170V310 9999 FEW020 12/09 Q1005
EGPH 240620Z VRB03KT 9999 -RA FEW020 11/09 Q1006
EGPH 240550Z 24006KT 200V300 9999 -RA NSC 11/08 Q1007
EGPH 240520Z 21006KT 190V260 9999 -RA NSC 11/07 Q1007
EGPH 240450Z VRB02KT 9999 -RA NSC 10/07 Q1008
EGPH 240420Z VRB03KT CAVOK 10/07 Q1008
EGPH 240350Z VRB03KT CAVOK 10/07 Q1008
EGPH 240320Z VRB02KT CAVOK 07/06 Q1009
EGPH 240250Z 27001KT CAVOK 07/06 Q1009
EGPH 240220Z 24004KT CAVOK 06/06 Q1009
EGPH 240150Z 26005KT CAVOK 08/07 Q1010
EGPH 240120Z 24006KT CAVOK 08/07 Q1010
EGPH 240050Z 24006KT 210V280 CAVOK 08/07 Q1011
EGPH 240020Z 22005KT CAVOK 09/07 Q1011
EGPH 232350Z 23007KT CAVOK 09/08 Q1010
EGPH 232320Z 23005KT CAVOK 09/08 Q1010
EGPH 232250Z 23005KT CAVOK 10/08 Q1010
EGPH 232220Z 21005KT 9999 FEW017 10/09 Q1010
EGPH 232150Z 20005KT 9999 FEW017 10/09 Q1011
EGPH 232120Z 24004KT 9999 FEW017 10/09 Q1011
EGPH 232050Z 25006KT 9999 FEW017 11/09 Q1011
EGPH 232020Z 25007KT 9999 SCT013 11/10 Q1010
EGPH 231950Z 24009KT 9999 SCT020 12/10 Q1010
EGPH 231920Z 26008KT 9999 -RA FEW015 SCT035 12/11 Q1010
EGPH 231850Z 24011KT 9000 -RA BKN028 13/12 Q1009
EGPH 231820Z 24012KT 9000 -RA BKN029 13/11 Q1009
EGPH 231750Z 23010KT 9999 SCT029 14/10 Q1009
EGPH 231720Z 22011KT 9999 SCT034 14/10 Q1009
EGPH 231650Z 23007KT 200V260 9999 SCT024TCU 14/11 Q1009
EGPH 231620Z 23011KT 9999 7000NW VCSH SCT025 14/10 Q1008
EGPH 231550Z 23014KT 9999 SCT035 14/10 Q1009
EGPH 231520Z 23014KT 9999 SCT022 15/11 Q1009
EGPH 231450Z 23010KT 9999 SCT021 15/12 Q1009
EGPH 231420Z 23008KT 210V270 9999 SCT020 15/12 Q1009
EGPH 231350Z 23011KT 9999 SCT035 15/12 Q1009
EGPH 231320Z 24015KT 9999 6000NW VCSH SCT018 15/12 Q1008
EGPH 231250Z 23014KT 9999 SCT015 15/12 Q1008
EGPH 231220Z 22015KT 9999 FEW015 BKN020 15/12 Q1009
EGPH 231150Z 21010KT 9999 BKN022 15/12 Q1009
EGPH 231120Z 22010KT 9999 SCT020 BKN038 14/11 Q1009
EGPH 231050Z 21013KT 9999 VCSH FEW018 BKN032 15/11 Q1009
EGPH 231020Z 22009KT 9999 VCSH FEW021 BKN032 15/12 Q1009
EGPH 230950Z 21005KT 160V240 9999 SCT019 14/11 Q1009
EGPH 230920Z 25004KT 200V270 9999 BKN018 14/11 Q1009
EGPH 230850Z 19006KT 160V230 9999 BKN020 13/11 Q1009
EGPH 230820Z VRB02KT 9999 FEW018 BKN046 12/10 Q1010
EGPH 230750Z VRB03KT 9999 FEW018 SCT048 12/10 Q1010
EGPH 230720Z VRB03KT 9999 -DZ FEW013 SCT048 11/09 Q1010
EGPH 230650Z VRB02KT 9999 SCT045 10/08 Q1010
EGPH 230620Z VRB02KT CAVOK 10/08 Q1010
EGPH 230550Z 04004KT CAVOK 08/07 Q1010
EGPH 230520Z VRB03KT CAVOK 08/07 Q1011
EGPH 230450Z 03004KT 9999 -RA NSC 08/07 Q1011
EGPH 230420Z VRB03KT CAVOK 07/06 Q1011
EGPH 230350Z 04002KT CAVOK 07/06 Q1011
EGPH 230320Z VRB02KT CAVOK 07/06 Q1011
EGPH 230250Z 04001KT CAVOK 07/06 Q1012
EGPH 230220Z 31001KT CAVOK 07/06 Q1012
EGPH 230150Z VRB01KT CAVOK 07/05 Q1012
EGPH 230120Z 25004KT CAVOK 07/05 Q1012
EGPH 230050Z 29003KT CAVOK 07/05 Q1012
EGPH 230020Z 27004KT 240V300 CAVOK 06/05 Q1013
EGPH 222350Z 26004KT CAVOK 06/04 Q1013
EGPH 222320Z 28004KT CAVOK 06/04 Q1012
EGPH 222250Z 25005KT CAVOK 05/03 Q1012
EGPH 222220Z 23004KT 9999 FEW037 05/03 Q1012
EGPH 222150Z 25005KT 9999 FEW037 06/04 Q1012
EGPH 222120Z 26007KT 9999 FEW037 07/04 Q1012
EGPH 222050Z VRB03KT 9999 FEW037 07/04 Q1012
EGPH 222020Z 25008KT 9999 FEW035 08/05 Q1012
EGPH 221950Z 25012KT 9999 FEW035 08/05 Q1011